sensor_id;sensor_type;location;lat;lon;timestamp;P1;durP1;ratioP1;P2;durP2;ratioP2
8104;SDS011;4095;48.942;9.104;2022-10-31T00:00:40;7.90;;;7.10;;
8104;SDS011;4095;48.942;9.104;2022-10-31T00:03:06;9.80;;;8.03;;
8104;SDS011;4095;48.942;9.104;2022-10-31T00:05:31;10.90;;;9.03;;
8104;SDS011;4095;48.942;9.104;2022-10-31T00:07:57;9.70;;;7.90;;
8104;SDS011;4095;48.942;9.104;2022-10-31T00:10:23;10.00;;;7.83;;
8104;SDS011;4095;48.942;9.104;2022-10-31T00:12:48;9.70;;;8.37;;
8104;SDS011;4095;48.942;9.104;2022-10-31T00:15:14;8.77;;;7.50;;
8104;SDS011;4095;48.942;9.104;2022-10-31T00:17:39;8.63;;;7.40;;
8104;SDS011;4095;48.942;9.104;2022-10-31T00:20:05;13.57;;;8.70;;
8104;SDS011;4095;48.942;9.104;2022-10-31T00:22:31;15.10;;;8.13;;
8104;SDS011;4095;48.942;9.104;2022-10-31T00:24:57;14.03;;;8.20;;
8104;SDS011;4095;48.942;9.104;2022-10-31T00:27:22;14.40;;;8.60;;
8104;SDS011;4095;48.942;9.104;2022-10-31T00:29:48;13.00;;;8.80;;
8104;SDS011;4095;48.942;9.104;2022-10-31T00:32:14;11.37;;;7.90;;
8104;SDS011;4095;48.942;9.104;2022-10-31T00:34:39;11.70;;;8.47;;
8104;SDS011;4095;48.942;9.104;2022-10-31T00:37:05;11.93;;;8.90;;
8104;SDS011;4095;48.942;9.104;2022-10-31T00:39:30;14.00;;;9.60;;
8104;SDS011;4095;48.942;9.104;2022-10-31T00:41:56;11.33;;;8.90;;
8104;SDS011;4095;48.942;9.104;2022-10-31T00:44:22;11.30;;;8.60;;
8104;SDS011;4095;48.942;9.104;2022-10-31T00:46:47;10.03;;;7.50;;
8104;SDS011;4095;48.942;9.104;2022-10-31T00:49:13;8.93;;;7.47;;
8104;SDS011;4095;48.942;9.104;2022-10-31T00:51:38;11.77;;;7.43;;
8104;SDS011;4095;48.942;9.104;2022-10-31T00:54:04;14.07;;;8.30;;
8104;SDS011;4095;48.942;9.104;2022-10-31T00:56:29;10.17;;;7.80;;
8104;SDS011;4095;48.942;9.104;2022-10-31T00:58:55;12.53;;;8.20;;
8104;SDS011;4095;48.942;9.104;2022-10-31T01:01:21;12.57;;;8.60;;
8104;SDS011;4095;48.942;9.104;2022-10-31T01:03:46;11.93;;;7.97;;
8104;SDS011;4095;48.942;9.104;2022-10-31T01:06:12;10.03;;;8.23;;
8104;SDS011;4095;48.942;9.104;2022-10-31T01:08:39;11.20;;;7.87;;
8104;SDS011;4095;48.942;9.104;2022-10-31T01:11:11;12.17;;;8.73;;
8104;SDS011;4095;48.942;9.104;2022-10-31T01:13:37;11.53;;;8.10;;
8104;SDS011;4095;48.942;9.104;2022-10-31T01:16:04;11.43;;;8.60;;
8104;SDS011;4095;48.942;9.104;2022-10-31T01:18:31;13.20;;;8.13;;
8104;SDS011;4095;48.942;9.104;2022-10-31T01:21:01;10.10;;;7.93;;
8104;SDS011;4095;48.942;9.104;2022-10-31T01:23:29;10.20;;;7.77;;
8104;SDS011;4095;48.942;9.104;2022-10-31T01:25:59;9.20;;;8.13;;
8104;SDS011;4095;48.942;9.104;2022-10-31T01:28:30;11.20;;;7.23;;
8104;SDS011;4095;48.942;9.104;2022-10-31T01:30:59;11.10;;;7.43;;
8104;SDS011;4095;48.942;9.104;2022-10-31T01:33:26;9.27;;;7.40;;
8104;SDS011;4095;48.942;9.104;2022-10-31T01:35:52;9.90;;;8.00;;
8104;SDS011;4095;48.942;9.104;2022-10-31T01:38:17;9.73;;;6.90;;
8104;SDS011;4095;48.942;9.104;2022-10-31T01:40:43;8.10;;;6.50;;
8104;SDS011;4095;48.942;9.104;2022-10-31T01:43:12;9.23;;;7.20;;
8104;SDS011;4095;48.942;9.104;2022-10-31T01:45:38;8.60;;;6.87;;
8104;SDS011;4095;48.942;9.104;2022-10-31T01:48:04;8.60;;;7.00;;
8104;SDS011;4095;48.942;9.104;2022-10-31T01:50:37;9.10;;;6.50;;
8104;SDS011;4095;48.942;9.104;2022-10-31T01:53:04;9.57;;;6.67;;
8104;SDS011;4095;48.942;9.104;2022-10-31T01:55:36;9.57;;;6.60;;
8104;SDS011;4095;48.942;9.104;2022-10-31T01:58:07;9.70;;;6.30;;
8104;SDS011;4095;48.942;9.104;2022-10-31T02:00:38;8.03;;;6.87;;
8104;SDS011;4095;48.942;9.104;2022-10-31T02:03:06;10.57;;;6.87;;
8104;SDS011;4095;48.942;9.104;2022-10-31T02:05:32;8.70;;;6.77;;
8104;SDS011;4095;48.942;9.104;2022-10-31T02:08:00;9.70;;;6.93;;
8104;SDS011;4095;48.942;9.104;2022-10-31T02:10:27;8.27;;;5.83;;
8104;SDS011;4095;48.942;9.104;2022-10-31T02:12:56;8.80;;;6.10;;
8104;SDS011;4095;48.942;9.104;2022-10-31T02:15:24;8.50;;;6.27;;
8104;SDS011;4095;48.942;9.104;2022-10-31T02:17:49;7.37;;;6.33;;
8104;SDS011;4095;48.942;9.104;2022-10-31T02:20:16;8.43;;;6.37;;
8104;SDS011;4095;48.942;9.104;2022-10-31T02:31:39;8.20;;;6.13;;
8104;SDS011;4095;48.942;9.104;2022-10-31T02:34:22;10.07;;;5.83;;
8104;SDS011;4095;48.942;9.104;2022-10-31T02:37:11;6.73;;;5.20;;
8104;SDS011;4095;48.942;9.104;2022-10-31T02:39:51;5.93;;;5.33;;
8104;SDS011;4095;48.942;9.104;2022-10-31T02:45:29;6.67;;;4.87;;
8104;SDS011;4095;48.942;9.104;2022-10-31T02:48:01;6.57;;;4.97;;
8104;SDS011;4095;48.942;9.104;2022-10-31T02:50:34;6.43;;;5.10;;
8104;SDS011;4095;48.942;9.104;2022-10-31T02:53:02;7.97;;;5.20;;
8104;SDS011;4095;48.942;9.104;2022-10-31T02:57:54;7.23;;;5.10;;
8104;SDS011;4095;48.942;9.104;2022-10-31T03:00:25;6.07;;;5.27;;
8104;SDS011;4095;48.942;9.104;2022-10-31T03:06:17;6.43;;;4.50;;
8104;SDS011;4095;48.942;9.104;2022-10-31T03:20:50;7.77;;;4.53;;
8104;SDS011;4095;48.942;9.104;2022-10-31T03:23:19;7.80;;;4.70;;
8104;SDS011;4095;48.942;9.104;2022-10-31T03:25:47;6.00;;;4.37;;
8104;SDS011;4095;48.942;9.104;2022-10-31T03:28:14;8.43;;;5.03;;
8104;SDS011;4095;48.942;9.104;2022-10-31T03:30:43;6.43;;;4.90;;
8104;SDS011;4095;48.942;9.104;2022-10-31T03:33:11;5.87;;;5.27;;
8104;SDS011;4095;48.942;9.104;2022-10-31T03:35:42;6.17;;;5.07;;
8104;SDS011;4095;48.942;9.104;2022-10-31T03:38:12;6.70;;;5.00;;
8104;SDS011;4095;48.942;9.104;2022-10-31T03:40:40;5.30;;;4.80;;
8104;SDS011;4095;48.942;9.104;2022-10-31T03:43:10;6.93;;;4.90;;
8104;SDS011;4095;48.942;9.104;2022-10-31T03:45:41;4.87;;;4.47;;
8104;SDS011;4095;48.942;9.104;2022-10-31T03:48:10;5.87;;;4.30;;
8104;SDS011;4095;48.942;9.104;2022-10-31T03:50:44;8.27;;;4.63;;
8104;SDS011;4095;48.942;9.104;2022-10-31T03:53:33;7.30;;;4.83;;
8104;SDS011;4095;48.942;9.104;2022-10-31T03:56:09;6.90;;;4.33;;
8104;SDS011;4095;48.942;9.104;2022-10-31T03:58:47;5.27;;;4.00;;
8104;SDS011;4095;48.942;9.104;2022-10-31T04:01:20;5.17;;;4.50;;
8104;SDS011;4095;48.942;9.104;2022-10-31T04:03:47;6.60;;;4.17;;
8104;SDS011;4095;48.942;9.104;2022-10-31T04:06:14;5.57;;;4.33;;
8104;SDS011;4095;48.942;9.104;2022-10-31T04:08:44;4.83;;;4.33;;
8104;SDS011;4095;48.942;9.104;2022-10-31T04:11:23;3.80;;;3.50;;
8104;SDS011;4095;48.942;9.104;2022-10-31T04:13:52;4.20;;;3.50;;
8104;SDS011;4095;48.942;9.104;2022-10-31T04:16:19;4.70;;;4.20;;
8104;SDS011;4095;48.942;9.104;2022-10-31T04:18:48;4.57;;;3.90;;
8104;SDS011;4095;48.942;9.104;2022-10-31T04:21:13;5.87;;;4.03;;
8104;SDS011;4095;48.942;9.104;2022-10-31T04:23:39;5.00;;;4.10;;
8104;SDS011;4095;48.942;9.104;2022-10-31T04:26:05;4.23;;;3.83;;
8104;SDS011;4095;48.942;9.104;2022-10-31T04:28:30;4.63;;;4.03;;
8104;SDS011;4095;48.942;9.104;2022-10-31T04:30:57;4.37;;;3.70;;
8104;SDS011;4095;48.942;9.104;2022-10-31T04:33:23;5.97;;;4.13;;
8104;SDS011;4095;48.942;9.104;2022-10-31T04:35:48;4.30;;;3.83;;
8104;SDS011;4095;48.942;9.104;2022-10-31T04:38:14;4.70;;;4.20;;
8104;SDS011;4095;48.942;9.104;2022-10-31T04:40:40;7.23;;;4.73;;
8104;SDS011;4095;48.942;9.104;2022-10-31T04:43:05;7.00;;;5.33;;
8104;SDS011;4095;48.942;9.104;2022-10-31T04:45:31;7.80;;;5.13;;
8104;SDS011;4095;48.942;9.104;2022-10-31T04:47:56;8.30;;;5.80;;
8104;SDS011;4095;48.942;9.104;2022-10-31T04:50:22;11.57;;;6.20;;
8104;SDS011;4095;48.942;9.104;2022-10-31T04:52:48;8.13;;;6.10;;
8104;SDS011;4095;48.942;9.104;2022-10-31T04:55:13;8.00;;;4.83;;
8104;SDS011;4095;48.942;9.104;2022-10-31T04:57:40;8.77;;;4.97;;
8104;SDS011;4095;48.942;9.104;2022-10-31T05:00:07;6.97;;;4.93;;
8104;SDS011;4095;48.942;9.104;2022-10-31T05:02:33;6.83;;;4.43;;
8104;SDS011;4095;48.942;9.104;2022-10-31T05:04:58;5.33;;;4.80;;
8104;SDS011;4095;48.942;9.104;2022-10-31T05:07:24;5.37;;;4.87;;
8104;SDS011;4095;48.942;9.104;2022-10-31T05:09:50;8.50;;;5.40;;
8104;SDS011;4095;48.942;9.104;2022-10-31T05:12:16;6.27;;;5.60;;
8104;SDS011;4095;48.942;9.104;2022-10-31T05:14:41;6.37;;;5.50;;
8104;SDS011;4095;48.942;9.104;2022-10-31T05:17:07;5.23;;;4.63;;
8104;SDS011;4095;48.942;9.104;2022-10-31T05:19:32;6.30;;;5.00;;
8104;SDS011;4095;48.942;9.104;2022-10-31T05:21:58;6.13;;;5.00;;
8104;SDS011;4095;48.942;9.104;2022-10-31T05:24:23;5.33;;;4.80;;
8104;SDS011;4095;48.942;9.104;2022-10-31T05:26:49;5.67;;;4.93;;
8104;SDS011;4095;48.942;9.104;2022-10-31T05:29:15;6.53;;;4.77;;
8104;SDS011;4095;48.942;9.104;2022-10-31T05:31:40;5.73;;;4.40;;
8104;SDS011;4095;48.942;9.104;2022-10-31T05:34:06;6.50;;;4.43;;
8104;SDS011;4095;48.942;9.104;2022-10-31T05:36:31;5.17;;;4.07;;
8104;SDS011;4095;48.942;9.104;2022-10-31T05:38:57;4.33;;;3.93;;
8104;SDS011;4095;48.942;9.104;2022-10-31T05:41:23;4.73;;;3.73;;
8104;SDS011;4095;48.942;9.104;2022-10-31T05:43:48;5.57;;;4.13;;
8104;SDS011;4095;48.942;9.104;2022-10-31T05:46:14;4.30;;;3.80;;
8104;SDS011;4095;48.942;9.104;2022-10-31T05:48:39;5.33;;;4.00;;
8104;SDS011;4095;48.942;9.104;2022-10-31T05:51:05;6.20;;;4.37;;
8104;SDS011;4095;48.942;9.104;2022-10-31T05:53:30;6.57;;;4.23;;
8104;SDS011;4095;48.942;9.104;2022-10-31T05:55:56;8.90;;;4.43;;
8104;SDS011;4095;48.942;9.104;2022-10-31T05:58:22;6.97;;;4.20;;
8104;SDS011;4095;48.942;9.104;2022-10-31T06:00:47;7.13;;;4.57;;
8104;SDS011;4095;48.942;9.104;2022-10-31T06:03:13;4.43;;;4.03;;
8104;SDS011;4095;48.942;9.104;2022-10-31T06:05:38;5.83;;;4.23;;
8104;SDS011;4095;48.942;9.104;2022-10-31T06:08:04;7.37;;;4.30;;
8104;SDS011;4095;48.942;9.104;2022-10-31T06:10:30;4.90;;;4.40;;
8104;SDS011;4095;48.942;9.104;2022-10-31T06:12:55;5.63;;;4.20;;
8104;SDS011;4095;48.942;9.104;2022-10-31T06:15:21;4.53;;;4.10;;
8104;SDS011;4095;48.942;9.104;2022-10-31T06:17:47;6.17;;;4.30;;
8104;SDS011;4095;48.942;9.104;2022-10-31T06:20:21;4.87;;;4.23;;
8104;SDS011;4095;48.942;9.104;2022-10-31T06:22:47;11.03;;;5.37;;
8104;SDS011;4095;48.942;9.104;2022-10-31T06:25:12;6.83;;;5.40;;
8104;SDS011;4095;48.942;9.104;2022-10-31T06:27:38;6.87;;;5.07;;
8104;SDS011;4095;48.942;9.104;2022-10-31T06:30:04;6.10;;;5.03;;
8104;SDS011;4095;48.942;9.104;2022-10-31T06:32:30;7.07;;;5.37;;
8104;SDS011;4095;48.942;9.104;2022-10-31T06:34:55;6.53;;;5.23;;
8104;SDS011;4095;48.942;9.104;2022-10-31T06:37:21;6.30;;;4.87;;
8104;SDS011;4095;48.942;9.104;2022-10-31T06:39:46;6.50;;;5.40;;
8104;SDS011;4095;48.942;9.104;2022-10-31T06:42:12;6.70;;;5.00;;
8104;SDS011;4095;48.942;9.104;2022-10-31T06:44:40;6.77;;;5.67;;
8104;SDS011;4095;48.942;9.104;2022-10-31T06:47:06;6.83;;;5.07;;
8104;SDS011;4095;48.942;9.104;2022-10-31T06:49:31;5.43;;;4.77;;
8104;SDS011;4095;48.942;9.104;2022-10-31T06:51:57;6.77;;;5.20;;
8104;SDS011;4095;48.942;9.104;2022-10-31T06:54:23;6.00;;;4.80;;
8104;SDS011;4095;48.942;9.104;2022-10-31T06:56:48;6.87;;;4.80;;
8104;SDS011;4095;48.942;9.104;2022-10-31T06:59:14;6.23;;;4.93;;
8104;SDS011;4095;48.942;9.104;2022-10-31T07:01:40;5.83;;;4.53;;
8104;SDS011;4095;48.942;9.104;2022-10-31T07:04:05;5.33;;;4.83;;
8104;SDS011;4095;48.942;9.104;2022-10-31T07:06:32;5.50;;;4.27;;
8104;SDS011;4095;48.942;9.104;2022-10-31T07:08:57;4.90;;;4.30;;
8104;SDS011;4095;48.942;9.104;2022-10-31T07:11:23;5.20;;;4.70;;
8104;SDS011;4095;48.942;9.104;2022-10-31T07:13:49;5.93;;;4.53;;
8104;SDS011;4095;48.942;9.104;2022-10-31T07:16:14;7.13;;;4.87;;
8104;SDS011;4095;48.942;9.104;2022-10-31T07:18:40;4.90;;;4.50;;
8104;SDS011;4095;48.942;9.104;2022-10-31T07:21:05;5.10;;;4.50;;
8104;SDS011;4095;48.942;9.104;2022-10-31T07:23:31;5.67;;;4.47;;
8104;SDS011;4095;48.942;9.104;2022-10-31T07:25:57;6.77;;;4.53;;
8104;SDS011;4095;48.942;9.104;2022-10-31T07:28:24;5.43;;;4.93;;
8104;SDS011;4095;48.942;9.104;2022-10-31T07:30:50;5.70;;;4.87;;
8104;SDS011;4095;48.942;9.104;2022-10-31T07:33:17;6.87;;;5.40;;
8104;SDS011;4095;48.942;9.104;2022-10-31T07:35:42;8.60;;;7.70;;
8104;SDS011;4095;48.942;9.104;2022-10-31T07:38:09;7.50;;;6.70;;
8104;SDS011;4095;48.942;9.104;2022-10-31T07:40:36;6.00;;;5.40;;
8104;SDS011;4095;48.942;9.104;2022-10-31T07:43:02;6.43;;;5.73;;
8104;SDS011;4095;48.942;9.104;2022-10-31T07:45:28;7.77;;;5.83;;
8104;SDS011;4095;48.942;9.104;2022-10-31T07:47:54;7.67;;;5.57;;
8104;SDS011;4095;48.942;9.104;2022-10-31T07:50:21;7.90;;;5.97;;
8104;SDS011;4095;48.942;9.104;2022-10-31T07:52:48;8.43;;;5.57;;
8104;SDS011;4095;48.942;9.104;2022-10-31T07:55:22;9.47;;;6.00;;
8104;SDS011;4095;48.942;9.104;2022-10-31T07:57:55;10.20;;;5.47;;
8104;SDS011;4095;48.942;9.104;2022-10-31T08:00:21;8.73;;;6.07;;
8104;SDS011;4095;48.942;9.104;2022-10-31T08:02:47;8.77;;;6.00;;
8104;SDS011;4095;48.942;9.104;2022-10-31T08:05:14;11.17;;;5.97;;
8104;SDS011;4095;48.942;9.104;2022-10-31T08:07:39;9.20;;;6.77;;
8104;SDS011;4095;48.942;9.104;2022-10-31T08:10:05;9.83;;;6.50;;
8104;SDS011;4095;48.942;9.104;2022-10-31T08:12:31;10.47;;;7.00;;
8104;SDS011;4095;48.942;9.104;2022-10-31T08:14:56;9.67;;;6.87;;
8104;SDS011;4095;48.942;9.104;2022-10-31T08:17:22;10.17;;;6.57;;
8104;SDS011;4095;48.942;9.104;2022-10-31T08:19:48;9.20;;;6.40;;
8104;SDS011;4095;48.942;9.104;2022-10-31T08:22:13;12.60;;;6.83;;
8104;SDS011;4095;48.942;9.104;2022-10-31T08:24:39;11.00;;;6.10;;
8104;SDS011;4095;48.942;9.104;2022-10-31T08:27:04;9.60;;;6.93;;
8104;SDS011;4095;48.942;9.104;2022-10-31T08:29:30;12.90;;;6.43;;
8104;SDS011;4095;48.942;9.104;2022-10-31T08:31:57;8.57;;;6.87;;
8104;SDS011;4095;48.942;9.104;2022-10-31T08:34:23;8.10;;;6.60;;
8104;SDS011;4095;48.942;9.104;2022-10-31T08:36:49;10.90;;;6.67;;
8104;SDS011;4095;48.942;9.104;2022-10-31T08:39:14;13.63;;;8.00;;
8104;SDS011;4095;48.942;9.104;2022-10-31T08:41:40;13.47;;;9.17;;
8104;SDS011;4095;48.942;9.104;2022-10-31T08:44:06;12.23;;;6.77;;
8104;SDS011;4095;48.942;9.104;2022-10-31T08:46:31;10.37;;;6.33;;
8104;SDS011;4095;48.942;9.104;2022-10-31T08:48:57;8.90;;;5.63;;
8104;SDS011;4095;48.942;9.104;2022-10-31T08:51:23;11.83;;;6.20;;
8104;SDS011;4095;48.942;9.104;2022-10-31T08:53:48;13.17;;;6.83;;
8104;SDS011;4095;48.942;9.104;2022-10-31T08:56:14;8.83;;;6.40;;
8104;SDS011;4095;48.942;9.104;2022-10-31T08:58:40;11.70;;;6.43;;
8104;SDS011;4095;48.942;9.104;2022-10-31T09:01:05;9.33;;;6.17;;
8104;SDS011;4095;48.942;9.104;2022-10-31T09:03:31;9.53;;;6.47;;
8104;SDS011;4095;48.942;9.104;2022-10-31T09:05:58;10.97;;;6.30;;
8104;SDS011;4095;48.942;9.104;2022-10-31T09:08:25;10.53;;;6.57;;
8104;SDS011;4095;48.942;9.104;2022-10-31T09:10:51;9.97;;;6.73;;
8104;SDS011;4095;48.942;9.104;2022-10-31T09:13:18;13.10;;;7.30;;
8104;SDS011;4095;48.942;9.104;2022-10-31T09:15:45;10.30;;;6.70;;
8104;SDS011;4095;48.942;9.104;2022-10-31T09:18:13;9.23;;;6.70;;
8104;SDS011;4095;48.942;9.104;2022-10-31T09:20:42;10.27;;;7.03;;
8104;SDS011;4095;48.942;9.104;2022-10-31T09:23:10;9.37;;;6.60;;
8104;SDS011;4095;48.942;9.104;2022-10-31T09:25:39;9.03;;;6.13;;
8104;SDS011;4095;48.942;9.104;2022-10-31T09:28:05;9.20;;;6.40;;
8104;SDS011;4095;48.942;9.104;2022-10-31T09:30:34;12.63;;;7.10;;
8104;SDS011;4095;48.942;9.104;2022-10-31T09:33:01;10.60;;;7.07;;
8104;SDS011;4095;48.942;9.104;2022-10-31T09:35:28;11.83;;;6.33;;
8104;SDS011;4095;48.942;9.104;2022-10-31T09:37:57;10.07;;;6.60;;
8104;SDS011;4095;48.942;9.104;2022-10-31T09:40:25;14.33;;;6.90;;
8104;SDS011;4095;48.942;9.104;2022-10-31T09:46:00;9.80;;;6.40;;
8104;SDS011;4095;48.942;9.104;2022-10-31T09:48:48;9.80;;;6.40;;
8104;SDS011;4095;48.942;9.104;2022-10-31T09:51:41;11.07;;;6.20;;
8104;SDS011;4095;48.942;9.104;2022-10-31T09:54:12;12.17;;;6.33;;
8104;SDS011;4095;48.942;9.104;2022-10-31T09:56:42;12.10;;;6.83;;
8104;SDS011;4095;48.942;9.104;2022-10-31T09:59:15;9.70;;;5.90;;
8104;SDS011;4095;48.942;9.104;2022-10-31T10:01:51;12.00;;;6.70;;
8104;SDS011;4095;48.942;9.104;2022-10-31T10:07:05;10.67;;;6.80;;
8104;SDS011;4095;48.942;9.104;2022-10-31T10:09:36;9.73;;;5.97;;
8104;SDS011;4095;48.942;9.104;2022-10-31T10:23:23;7.27;;;5.60;;
8104;SDS011;4095;48.942;9.104;2022-10-31T10:28:43;14.70;;;6.83;;
8104;SDS011;4095;48.942;9.104;2022-10-31T10:31:16;12.27;;;6.70;;
8104;SDS011;4095;48.942;9.104;2022-10-31T10:36:22;9.47;;;6.60;;
8104;SDS011;4095;48.942;9.104;2022-10-31T10:41:45;10.10;;;6.50;;
8104;SDS011;4095;48.942;9.104;2022-10-31T10:44:32;11.97;;;6.63;;
8104;SDS011;4095;48.942;9.104;2022-10-31T10:47:17;11.03;;;6.63;;
8104;SDS011;4095;48.942;9.104;2022-10-31T10:50:03;10.30;;;6.37;;
8104;SDS011;4095;48.942;9.104;2022-10-31T10:52:53;12.63;;;6.23;;
8104;SDS011;4095;48.942;9.104;2022-10-31T10:55:49;10.20;;;6.70;;
8104;SDS011;4095;48.942;9.104;2022-10-31T10:58:21;10.77;;;6.30;;
8104;SDS011;4095;48.942;9.104;2022-10-31T11:00:54;11.83;;;5.80;;
8104;SDS011;4095;48.942;9.104;2022-10-31T11:03:20;11.40;;;6.50;;
8104;SDS011;4095;48.942;9.104;2022-10-31T11:05:50;13.30;;;6.37;;
8104;SDS011;4095;48.942;9.104;2022-10-31T11:08:33;10.03;;;6.50;;
8104;SDS011;4095;48.942;9.104;2022-10-31T11:11:05;10.27;;;6.30;;
8104;SDS011;4095;48.942;9.104;2022-10-31T11:13:41;10.17;;;6.40;;
8104;SDS011;4095;48.942;9.104;2022-10-31T11:19:07;12.33;;;7.00;;
8104;SDS011;4095;48.942;9.104;2022-10-31T11:21:41;11.37;;;6.97;;
8104;SDS011;4095;48.942;9.104;2022-10-31T11:26:35;12.33;;;6.87;;
8104;SDS011;4095;48.942;9.104;2022-10-31T11:29:03;11.07;;;7.13;;
8104;SDS011;4095;48.942;9.104;2022-10-31T11:31:30;10.70;;;7.17;;
8104;SDS011;4095;48.942;9.104;2022-10-31T11:34:00;10.50;;;7.10;;
8104;SDS011;4095;48.942;9.104;2022-10-31T11:36:29;11.40;;;7.13;;
8104;SDS011;4095;48.942;9.104;2022-10-31T11:38:57;9.83;;;6.27;;
8104;SDS011;4095;48.942;9.104;2022-10-31T11:41:34;10.77;;;6.80;;
8104;SDS011;4095;48.942;9.104;2022-10-31T11:44:17;13.83;;;7.30;;
8104;SDS011;4095;48.942;9.104;2022-10-31T11:46:50;10.77;;;6.57;;
8104;SDS011;4095;48.942;9.104;2022-10-31T11:52:14;9.70;;;7.00;;
8104;SDS011;4095;48.942;9.104;2022-10-31T11:54:47;10.27;;;6.50;;
8104;SDS011;4095;48.942;9.104;2022-10-31T11:57:26;11.27;;;6.67;;
8104;SDS011;4095;48.942;9.104;2022-10-31T12:03:03;14.73;;;8.20;;
8104;SDS011;4095;48.942;9.104;2022-10-31T12:05:54;10.13;;;6.87;;
8104;SDS011;4095;48.942;9.104;2022-10-31T12:08:44;10.33;;;7.40;;
8104;SDS011;4095;48.942;9.104;2022-10-31T12:16:12;9.13;;;6.73;;
8104;SDS011;4095;48.942;9.104;2022-10-31T12:18:43;13.43;;;8.47;;
8104;SDS011;4095;48.942;9.104;2022-10-31T12:23:58;13.97;;;7.50;;
8104;SDS011;4095;48.942;9.104;2022-10-31T12:36:56;9.63;;;6.97;;
8104;SDS011;4095;48.942;9.104;2022-10-31T12:50:11;15.00;;;7.30;;
8104;SDS011;4095;48.942;9.104;2022-10-31T12:58:26;12.27;;;7.10;;
8104;SDS011;4095;48.942;9.104;2022-10-31T13:01:01;11.30;;;7.30;;
8104;SDS011;4095;48.942;9.104;2022-10-31T13:03:56;13.00;;;7.70;;
8104;SDS011;4095;48.942;9.104;2022-10-31T13:06:45;12.97;;;6.93;;
8104;SDS011;4095;48.942;9.104;2022-10-31T13:09:19;14.03;;;6.97;;
8104;SDS011;4095;48.942;9.104;2022-10-31T13:11:57;12.27;;;7.30;;
8104;SDS011;4095;48.942;9.104;2022-10-31T13:14:38;11.53;;;7.17;;
8104;SDS011;4095;48.942;9.104;2022-10-31T13:17:06;13.70;;;8.30;;
8104;SDS011;4095;48.942;9.104;2022-10-31T13:19:47;13.67;;;8.20;;
8104;SDS011;4095;48.942;9.104;2022-10-31T13:22:16;13.97;;;7.90;;
8104;SDS011;4095;48.942;9.104;2022-10-31T13:30:17;14.23;;;7.60;;
8104;SDS011;4095;48.942;9.104;2022-10-31T13:35:30;12.70;;;7.37;;
8104;SDS011;4095;48.942;9.104;2022-10-31T13:45:48;13.27;;;6.87;;
8104;SDS011;4095;48.942;9.104;2022-10-31T13:50:41;13.17;;;7.90;;
8104;SDS011;4095;48.942;9.104;2022-10-31T13:53:21;12.40;;;7.20;;
8104;SDS011;4095;48.942;9.104;2022-10-31T13:55:49;18.37;;;12.77;;
8104;SDS011;4095;48.942;9.104;2022-10-31T13:58:28;33.20;;;25.03;;
8104;SDS011;4095;48.942;9.104;2022-10-31T14:03:46;14.33;;;7.23;;
8104;SDS011;4095;48.942;9.104;2022-10-31T14:06:21;12.97;;;7.53;;
8104;SDS011;4095;48.942;9.104;2022-10-31T14:08:59;12.43;;;6.93;;
8104;SDS011;4095;48.942;9.104;2022-10-31T14:11:25;12.67;;;6.77;;
8104;SDS011;4095;48.942;9.104;2022-10-31T14:13:52;12.60;;;7.00;;
8104;SDS011;4095;48.942;9.104;2022-10-31T14:16:24;12.73;;;7.13;;
8104;SDS011;4095;48.942;9.104;2022-10-31T14:19:02;14.90;;;6.63;;
8104;SDS011;4095;48.942;9.104;2022-10-31T14:21:36;11.77;;;6.50;;
8104;SDS011;4095;48.942;9.104;2022-10-31T14:24:13;14.97;;;8.10;;
8104;SDS011;4095;48.942;9.104;2022-10-31T14:26:52;16.53;;;7.93;;
8104;SDS011;4095;48.942;9.104;2022-10-31T14:29:24;14.83;;;7.63;;
8104;SDS011;4095;48.942;9.104;2022-10-31T14:31:59;16.33;;;8.00;;
8104;SDS011;4095;48.942;9.104;2022-10-31T14:34:34;12.30;;;7.07;;
8104;SDS011;4095;48.942;9.104;2022-10-31T14:53:01;13.93;;;6.90;;
8104;SDS011;4095;48.942;9.104;2022-10-31T14:55:29;12.97;;;7.33;;
8104;SDS011;4095;48.942;9.104;2022-10-31T14:57:57;10.30;;;6.83;;
8104;SDS011;4095;48.942;9.104;2022-10-31T15:00:26;12.63;;;7.37;;
8104;SDS011;4095;48.942;9.104;2022-10-31T15:05:31;14.27;;;7.10;;
8104;SDS011;4095;48.942;9.104;2022-10-31T15:07:59;9.37;;;6.27;;
8104;SDS011;4095;48.942;9.104;2022-10-31T15:10:26;11.60;;;6.20;;
8104;SDS011;4095;48.942;9.104;2022-10-31T15:13:08;12.27;;;6.57;;
8104;SDS011;4095;48.942;9.104;2022-10-31T15:15:35;13.23;;;6.87;;
8104;SDS011;4095;48.942;9.104;2022-10-31T15:18:03;10.40;;;5.87;;
8104;SDS011;4095;48.942;9.104;2022-10-31T15:20:43;12.87;;;6.40;;
8104;SDS011;4095;48.942;9.104;2022-10-31T15:23:10;11.13;;;5.90;;
8104;SDS011;4095;48.942;9.104;2022-10-31T15:25:40;15.33;;;7.20;;
8104;SDS011;4095;48.942;9.104;2022-10-31T15:28:19;13.20;;;7.50;;
8104;SDS011;4095;48.942;9.104;2022-10-31T15:30:51;13.97;;;7.60;;
8104;SDS011;4095;48.942;9.104;2022-10-31T15:33:32;13.97;;;7.67;;
8104;SDS011;4095;48.942;9.104;2022-10-31T15:36:05;13.03;;;8.40;;
8104;SDS011;4095;48.942;9.104;2022-10-31T15:38:31;12.70;;;7.53;;
8104;SDS011;4095;48.942;9.104;2022-10-31T15:40:59;11.63;;;7.70;;
8104;SDS011;4095;48.942;9.104;2022-10-31T15:43:30;10.03;;;7.07;;
8104;SDS011;4095;48.942;9.104;2022-10-31T15:46:00;15.13;;;8.67;;
8104;SDS011;4095;48.942;9.104;2022-10-31T15:48:27;11.50;;;7.93;;
8104;SDS011;4095;48.942;9.104;2022-10-31T15:50:56;15.50;;;9.83;;
8104;SDS011;4095;48.942;9.104;2022-10-31T15:53:28;21.90;;;10.57;;
8104;SDS011;4095;48.942;9.104;2022-10-31T15:56:02;13.67;;;10.07;;
8104;SDS011;4095;48.942;9.104;2022-10-31T15:58:31;13.37;;;8.80;;
8104;SDS011;4095;48.942;9.104;2022-10-31T16:01:05;13.00;;;8.60;;
8104;SDS011;4095;48.942;9.104;2022-10-31T16:03:43;13.43;;;8.10;;
8104;SDS011;4095;48.942;9.104;2022-10-31T16:06:21;12.97;;;7.60;;
8104;SDS011;4095;48.942;9.104;2022-10-31T16:08:48;15.27;;;8.13;;
8104;SDS011;4095;48.942;9.104;2022-10-31T16:11:27;14.47;;;8.30;;
8104;SDS011;4095;48.942;9.104;2022-10-31T16:14:06;14.53;;;8.03;;
8104;SDS011;4095;48.942;9.104;2022-10-31T16:16:42;12.17;;;7.20;;
8104;SDS011;4095;48.942;9.104;2022-10-31T16:22:02;16.33;;;8.33;;
8104;SDS011;4095;48.942;9.104;2022-10-31T16:24:37;12.97;;;7.97;;
8104;SDS011;4095;48.942;9.104;2022-10-31T16:27:18;17.57;;;8.43;;
8104;SDS011;4095;48.942;9.104;2022-10-31T16:29:50;13.77;;;8.00;;
8104;SDS011;4095;48.942;9.104;2022-10-31T16:32:36;12.83;;;8.23;;
8104;SDS011;4095;48.942;9.104;2022-10-31T16:37:52;11.57;;;8.63;;
8104;SDS011;4095;48.942;9.104;2022-10-31T16:40:19;13.03;;;9.00;;
8104;SDS011;4095;48.942;9.104;2022-10-31T16:42:45;14.27;;;8.87;;
8104;SDS011;4095;48.942;9.104;2022-10-31T16:45:15;15.53;;;9.53;;
8104;SDS011;4095;48.942;9.104;2022-10-31T16:47:46;14.07;;;8.47;;
8104;SDS011;4095;48.942;9.104;2022-10-31T16:50:14;11.77;;;8.87;;
8104;SDS011;4095;48.942;9.104;2022-10-31T16:52:42;16.47;;;9.47;;
8104;SDS011;4095;48.942;9.104;2022-10-31T16:55:10;14.77;;;9.60;;
8104;SDS011;4095;48.942;9.104;2022-10-31T16:57:38;16.60;;;9.23;;
8104;SDS011;4095;48.942;9.104;2022-10-31T17:00:05;17.93;;;11.17;;
8104;SDS011;4095;48.942;9.104;2022-10-31T17:02:31;22.93;;;12.17;;
8104;SDS011;4095;48.942;9.104;2022-10-31T17:04:57;20.73;;;11.93;;
8104;SDS011;4095;48.942;9.104;2022-10-31T17:07:23;21.13;;;13.87;;
8104;SDS011;4095;48.942;9.104;2022-10-31T17:09:48;21.23;;;12.67;;
8104;SDS011;4095;48.942;9.104;2022-10-31T17:12:16;24.17;;;12.80;;
8104;SDS011;4095;48.942;9.104;2022-10-31T17:14:44;21.60;;;12.60;;
8104;SDS011;4095;48.942;9.104;2022-10-31T17:17:13;20.33;;;12.97;;
8104;SDS011;4095;48.942;9.104;2022-10-31T17:19:39;22.17;;;13.27;;
8104;SDS011;4095;48.942;9.104;2022-10-31T17:22:05;17.03;;;11.63;;
8104;SDS011;4095;48.942;9.104;2022-10-31T17:24:31;19.47;;;11.20;;
8104;SDS011;4095;48.942;9.104;2022-10-31T17:26:56;16.97;;;11.63;;
8104;SDS011;4095;48.942;9.104;2022-10-31T17:29:22;18.30;;;11.93;;
8104;SDS011;4095;48.942;9.104;2022-10-31T17:31:47;23.43;;;12.60;;
8104;SDS011;4095;48.942;9.104;2022-10-31T17:34:13;24.20;;;13.40;;
8104;SDS011;4095;48.942;9.104;2022-10-31T17:36:39;27.23;;;16.00;;
8104;SDS011;4095;48.942;9.104;2022-10-31T17:39:04;29.27;;;18.03;;
8104;SDS011;4095;48.942;9.104;2022-10-31T17:41:31;22.77;;;14.03;;
8104;SDS011;4095;48.942;9.104;2022-10-31T17:43:57;22.43;;;13.27;;
8104;SDS011;4095;48.942;9.104;2022-10-31T17:46:23;17.73;;;12.30;;